TimeAKDT,TemperatureF,Dew PointF,Humidity,Sea Level PressureIn,VisibilityMPH,Wind Direction,Wind SpeedMPH,Gust SpeedMPH,PrecipitationIn,Events,Conditions,WindDirDegrees,DateUTC
12:01 AM,9.0,7.0,92,30.49,10.0,WNW,15.0,-,N/A,,Clear,290,2012-10-23 08:01:00
1:01 AM,24.1,21.9,91,30.51,10.0,WNW,17.3,-,N/A,,Clear,290,2012-10-23 09:01:00
2:01 AM,25.0,21.0,85,30.52,10.0,WNW,18.4,-,N/A,,Clear,290,2012-10-23 10:01:00
3:01 AM,18.0,12.0,78,30.52,10.0,West,11.5,-,N/A,,Clear,260,2012-10-23 11:01:00
4:01 AM,14.0,10.9,88,30.54,10.0,WSW,9.2,-,N/A,,Clear,250,2012-10-23 12:01:00
5:01 AM,9.0,5.0,84,30.55,10.0,SW,11.5,-,N/A,,Clear,230,2012-10-23 13:01:00
6:01 AM,9.0,6.1,88,30.57,10.0,SW,15.0,-,N/A,,Clear,230,2012-10-23 14:01:00
7:01 AM,9.0,5.0,84,30.57,10.0,SW,12.7,-,N/A,,Clear,230,2012-10-23 15:01:00
8:01 AM,12.0,8.1,84,30.58,10.0,SW,12.7,-,N/A,,Clear,220,2012-10-23 16:01:00
9:01 AM,12.9,9.0,84,30.59,10.0,SW,10.4,-,N/A,,Overcast,230,2012-10-23 17:01:00
10:01 AM,19.9,18.0,92,30.60,10.0,West,13.8,23.0,N/A,,Overcast,260,2012-10-23 18:01:00
10:40 AM,26.6,26.6,100,30.61,5.0,West,23.0,-,0.00,Snow,Light Snow,280,2012-10-23 18:40:00
10:48 AM,26.6,26.6,100,30.61,3.0,West,23.0,-,0.00,,Overcast,280,2012-10-23 18:48:00
11:01 AM,26.6,26.6,100,30.61,2.0,West,23.0,-,0.00,,Overcast,280,2012-10-23 19:01:00
11:15 AM,26.6,26.6,100,30.62,5.0,West,23.0,-,0.00,,Overcast,280,2012-10-23 19:15:00
11:33 AM,28.4,26.6,93,30.62,2.5,West,23.0,-,0.00,,Overcast,280,2012-10-23 19:33:00
11:42 AM,28.4,26.6,93,30.62,4.0,West,21.9,-,0.00,,Overcast,280,2012-10-23 19:42:00
12:01 PM,28.0,27.0,96,30.63,8.0,West,24.2,-,0.00,,Overcast,280,2012-10-23 20:01:00
1:01 PM,28.0,28.0,100,30.64,8.0,West,24.2,-,0.00,,Overcast,280,2012-10-23 21:01:00
1:30 PM,28.4,28.4,100,30.65,6.0,West,20.7,-,0.00,,Overcast,280,2012-10-23 21:30:00
1:41 PM,28.4,28.4,100,30.65,4.0,West,20.7,-,0.00,,Overcast,280,2012-10-23 21:41:00
1:49 PM,28.4,28.4,100,30.65,10.0,West,18.4,-,0.00,,Overcast,280,2012-10-23 21:49:00
2:01 PM,28.4,28.4,100,30.66,10.0,West,20.7,26.5,0.00,,Overcast,280,2012-10-23 22:01:00
2:08 PM,28.4,28.4,100,30.66,10.0,West,20.7,-,0.00,,Overcast,280,2012-10-23 22:08:00
3:01 PM,30.0,28.9,96,30.67,10.0,WNW,23.0,-,0.00,,Overcast,290,2012-10-23 23:01:00
3:15 PM,30.2,28.4,93,30.67,10.0,WNW,21.9,-,N/A,,Overcast,290,2012-10-23 23:15:00
4:01 PM,30.2,28.4,93,30.68,7.0,West,19.6,-,0.00,,Overcast,280,2012-10-24 00:01:00
4:07 PM,30.0,28.9,96,30.68,8.0,West,18.4,-,0.00,,Overcast,280,2012-10-24 00:07:00
4:25 PM,30.2,28.4,93,30.68,10.0,West,18.4,-,0.00,,Overcast,280,2012-10-24 00:25:00
4:44 PM,30.2,28.4,93,30.68,10.0,West,17.3,-,0.00,,Overcast,280,2012-10-24 00:44:00
4:57 PM,30.2,28.4,93,30.68,10.0,West,17.3,-,0.00,,Overcast,280,2012-10-24 00:57:00
5:01 PM,30.0,28.9,96,30.68,10.0,West,18.4,-,0.00,,Overcast,280,2012-10-24 01:01:00
6:01 PM,30.0,28.9,96,30.69,10.0,West,16.1,-,N/A,,Overcast,280,2012-10-24 02:01:00
6:33 PM,30.2,28.4,93,30.70,10.0,West,18.4,-,0.00,,Overcast,280,2012-10-24 02:33:00
7:01 PM,30.0,28.9,96,30.70,10.0,West,16.1,-,0.00,,Overcast,270,2012-10-24 03:01:00
7:13 PM,30.2,28.4,93,30.70,8.0,West,15.0,-,0.00,Snow,Light Snow,270,2012-10-24 03:13:00
8:01 PM,28.9,28.9,100,30.71,6.0,West,15.0,-,0.00,,Overcast,270,2012-10-24 04:01:00
8:18 PM,30.2,28.4,93,30.71,8.0,West,13.8,-,0.00,Snow,Light Snow,270,2012-10-24 04:18:00
8:47 PM,30.2,28.4,93,30.72,10.0,West,13.8,-,0.00,,Overcast,270,2012-10-24 04:47:00
9:01 PM,30.0,28.9,96,30.72,10.0,West,13.8,-,0.00,,Overcast,270,2012-10-24 05:01:00
9:31 PM,30.2,28.4,93,30.72,10.0,West,13.8,-,N/A,,Overcast,270,2012-10-24 05:31:00
10:01 PM,28.4,28.4,100,30.73,10.0,West,13.8,-,N/A,,Overcast,270,2012-10-24 06:01:00
10:35 PM,28.4,28.4,100,30.73,10.0,West,12.7,-,N/A,,Overcast,270,2012-10-24 06:35:00
10:50 PM,28.4,28.4,100,30.74,10.0,West,13.8,-,N/A,,Overcast,270,2012-10-24 06:50:00
11:01 PM,28.9,28.9,100,30.74,10.0,West,13.8,-,N/A,,Overcast,270,2012-10-24 07:01:00
11:32 PM,30.2,28.4,93,30.74,10.0,West,13.8,-,N/A,,Overcast,280,2012-10-24 07:32:00